VTPH/HHQ METAR and TAF weather

Enter ICAO airport designator
Station Type Date Time Source
VTPH METAR 2022/01/19 11:00 UTC NOAA

VTPH 191100Z 01003KT 330V040 9999 FEW030 28/20 Q1009 NOSIG


Station Type Date Time Source
VTPH Decoded METAR 2022/01/19 11:00 UTC NOAA

Hua Hin, Thailand (VTPH) 12-35N 099-57E 6M
Jan 19, 2022 - 06:00 AM EST / 2022.01.19 1100 UTC
Wind: from the N (010 degrees) at 3 MPH (3 KT) (direction variable):0
Visibility: greater than 7 mile(s):0
Sky conditions: mostly clear
Temperature: 82 F (28 C)
Dew Point: 68 F (20 C)
Relative Humidity: 61%
Pressure (altimeter): 29.80 in. Hg (1009 hPa)
ob: VTPH 191100Z 01003KT 330V040 9999 FEW030 28/20 Q1009 NOSIG
cycle: 11

Station Type Date Time Source
VTPH TAF 2022/01/19 18:00 UTC NOAA

TAF VTPH 191700Z 1918/2018 VRB02KT 9999 FEW020

Example: see airport list